createdAt,value
2023-04-28T00:01:28.444Z,101863.25
2023-04-28T00:03:30.076Z,101864.13
2023-04-28T00:05:31.688Z,101863.22
2023-04-28T00:07:33.209Z,101853.63
2023-04-28T00:09:34.731Z,101863.19
2023-04-28T00:11:36.237Z,101858.84
2023-04-28T00:13:38.426Z,101847.47
2023-04-28T00:15:39.877Z,101851.81
2023-04-28T00:17:41.432Z,101849.19
2023-04-28T00:19:42.910Z,101844.81
2023-04-28T00:21:44.373Z,101846.56
2023-04-28T00:23:45.888Z,101836.06
2023-04-28T00:25:53.787Z,101843.03
2023-04-28T00:27:55.388Z,101838.66
2023-04-28T00:29:56.837Z,101836.03
2023-04-28T00:31:58.321Z,101838.63
2023-04-28T00:33:59.785Z,101833.34
2023-04-28T00:36:01.857Z,101833.31
2023-04-28T00:38:03.409Z,101826.31
2023-04-28T00:40:05.861Z,101818.47
2023-04-28T00:42:07.574Z,101824.59
2023-04-28T00:44:09.107Z,101822.84
2023-04-28T00:46:22.462Z,101827.19
2023-04-28T00:48:24.412Z,101812.31
2023-04-28T00:50:26.451Z,101810.56
2023-04-28T00:52:28.492Z,101804.47
2023-04-28T00:54:29.941Z,101803.56
2023-04-28T00:56:31.563Z,101799.19
2023-04-28T00:58:34.501Z,101801.81
2023-04-28T01:00:36.054Z,101795.69
2023-04-28T01:02:37.655Z,101794.81
2023-04-28T01:04:39.401Z,101794.81
2023-04-28T01:06:42.347Z,101794.75
2023-04-28T01:08:47.788Z,101788.63
2023-04-28T01:10:49.280Z,101788.59
2023-04-28T01:12:50.874Z,101776.38
2023-04-28T01:14:52.613Z,101783.38
2023-04-28T01:16:54.313Z,101786.00
2023-04-28T01:18:56.099Z,101779.88
2023-04-28T01:20:57.548Z,101785.09
2023-04-28T01:22:58.970Z,101778.13
2023-04-28T01:25:00.504Z,101777.25
2023-04-28T01:27:03.255Z,101776.38
2023-04-28T01:29:04.711Z,101774.63
2023-04-28T01:31:06.204Z,101772.84
2023-04-28T01:33:07.875Z,101767.59
2023-04-28T01:35:09.527Z,101763.22
2023-04-28T01:37:11.104Z,101766.72
2023-04-28T01:39:12.557Z,101756.25
2023-04-28T01:41:14.011Z,101751.00
2023-04-28T01:43:15.732Z,101750.09
2023-04-28T01:45:17.220Z,101747.47
2023-04-28T01:47:18.738Z,101744.84
2023-04-28T01:49:20.252Z,101743.97
2023-04-28T01:51:21.715Z,101741.34
2023-04-28T01:53:23.232Z,101740.47
2023-04-28T01:55:24.689Z,101736.06
2023-04-28T01:57:28.498Z,101727.31
2023-04-28T01:59:30.056Z,101728.19
2023-04-28T02:01:31.593Z,101722.94
2023-04-28T02:03:33.492Z,101718.56
2023-04-28T02:05:35.123Z,101718.56
2023-04-28T02:07:36.600Z,101722.03
2023-04-28T02:09:38.063Z,101720.25
2023-04-28T02:11:39.519Z,101713.28
2023-04-28T02:13:41.071Z,101710.66
2023-04-28T02:15:43.364Z,101712.41
2023-04-28T02:17:45.062Z,101706.28
2023-04-28T02:19:46.510Z,101707.13
2023-04-28T02:21:48.002Z,101701.03
2023-04-28T02:23:50.487Z,101696.66
2023-04-28T02:26:00.823Z,101700.13
2023-04-28T02:28:02.954Z,101698.38
2023-04-28T02:30:06.196Z,101699.25
2023-04-28T02:32:08.027Z,101701.88
2023-04-28T02:34:09.519Z,101696.63
2023-04-28T02:36:11.448Z,101687.91
2023-04-28T02:38:12.915Z,101692.28
2023-04-28T02:40:14.625Z,101686.16
2023-04-28T02:42:16.301Z,101682.66
2023-04-28T02:44:18.102Z,101677.44
2023-04-28T02:46:19.744Z,101674.81
2023-04-28T02:48:21.480Z,101670.44
2023-04-28T02:50:23.011Z,101652.13
2023-04-28T02:52:24.467Z,101652.13
2023-04-28T02:54:28.721Z,101646.88
2023-04-28T02:56:30.711Z,101644.25
2023-04-28T02:58:32.179Z,101649.50
2023-04-28T03:00:33.657Z,101641.63
2023-04-28T03:02:35.170Z,101635.50
2023-04-28T03:04:36.858Z,101638.13
2023-04-28T03:06:38.523Z,101633.75
2023-04-28T03:08:40.068Z,101631.13
2023-04-28T03:10:41.633Z,101633.72
2023-04-28T03:12:43.109Z,101627.63
2023-04-28T03:14:44.541Z,101628.47
2023-04-28T03:16:46.235Z,101624.13
2023-04-28T03:18:47.778Z,101615.38
2023-04-28T03:20:50.282Z,101608.38
2023-04-28T03:22:51.797Z,101605.78
2023-04-28T03:24:53.251Z,101605.75
2023-04-28T03:26:54.802Z,101604.84
2023-04-28T03:28:56.952Z,101608.31
2023-04-28T03:30:58.555Z,101610.94
2023-04-28T03:33:00.059Z,101611.78
2023-04-28T03:35:01.787Z,101607.44
2023-04-28T03:37:03.238Z,101601.31
2023-04-28T03:39:04.690Z,101594.34
2023-04-28T03:41:06.182Z,101583.00
2023-04-28T03:43:07.755Z,101585.59
2023-04-28T03:45:09.626Z,101581.25
2023-04-28T03:47:11.199Z,101577.75
2023-04-28T03:49:12.684Z,101583.88
2023-04-28T03:51:14.159Z,101573.38
2023-04-28T03:53:16.308Z,101567.28
2023-04-28T03:55:17.832Z,101569.00
2023-04-28T03:57:19.261Z,101569.00
2023-04-28T03:59:21.044Z,101565.53
2023-04-28T04:01:22.900Z,101561.16
2023-04-28T04:03:26.509Z,101556.81
2023-04-28T04:05:28.314Z,101553.34
2023-04-28T04:07:29.781Z,101555.09
2023-04-28T04:09:31.325Z,101548.97
2023-04-28T04:11:32.786Z,101547.25
2023-04-28T04:13:34.335Z,101551.59
2023-04-28T04:15:36.003Z,101541.13
2023-04-28T04:17:37.657Z,101540.25
2023-04-28T04:19:39.177Z,101542.00
2023-04-28T04:21:41.138Z,101538.50
2023-04-28T04:23:42.622Z,101536.78
2023-04-28T04:25:44.096Z,101526.31
2023-04-28T04:27:45.554Z,101533.28
2023-04-28T04:29:47.074Z,101526.34
2023-04-28T04:31:49.635Z,101522.88
2023-04-28T04:33:51.725Z,101518.50
2023-04-28T04:35:53.418Z,101515.03
2023-04-28T04:37:54.926Z,101512.44
2023-04-28T04:39:56.416Z,101504.59
2023-04-28T04:41:57.917Z,101507.22
2023-04-28T04:43:59.525Z,101504.59
2023-04-28T04:46:01.129Z,101497.63
2023-04-28T04:48:03.167Z,101500.25
2023-04-28T04:50:04.927Z,101496.78
2023-04-28T04:52:06.969Z,101493.28
2023-04-28T04:54:08.556Z,101495.03
2023-04-28T04:56:10.092Z,101483.69
2023-04-28T04:58:11.775Z,101493.31
2023-04-28T05:00:13.708Z,101490.69
2023-04-28T05:02:15.179Z,101490.69
2023-04-28T05:04:16.807Z,101490.69
2023-04-28T05:06:18.697Z,101489.81
2023-04-28T05:08:20.420Z,101497.72
2023-04-28T05:10:22.003Z,101494.22
2023-04-28T05:12:23.514Z,101495.13
2023-04-28T05:14:25.053Z,101496.88
2023-04-28T05:16:26.674Z,101499.50
2023-04-28T05:18:28.222Z,101491.63
2023-04-28T05:20:29.692Z,101493.38
2023-04-28T05:22:31.400Z,101492.50
2023-04-28T05:24:32.929Z,101493.44
2023-04-28T05:26:35.507Z,101494.31
2023-04-28T05:28:37.000Z,101491.69
2023-04-28T05:30:38.460Z,101489.06
2023-04-28T05:32:40.001Z,101484.72
2023-04-28T05:34:41.521Z,101485.59
2023-04-28T05:36:43.938Z,101482.09
2023-04-28T05:38:45.587Z,101484.72
2023-04-28T05:40:47.102Z,101479.47
2023-04-28T05:42:48.554Z,101472.50
2023-04-28T05:44:50.019Z,101474.22
2023-04-28T05:46:51.611Z,101475.97
2023-04-28T05:48:53.114Z,101468.97
2023-04-28T05:50:54.579Z,101468.97
2023-04-28T05:52:56.079Z,101468.13
2023-04-28T05:54:57.588Z,101472.47
2023-04-28T05:57:01.395Z,101472.44
2023-04-28T05:59:04.556Z,101471.53
2023-04-28T06:01:06.382Z,101471.53
2023-04-28T06:03:11.198Z,101463.66
2023-04-28T06:05:13.251Z,101462.75
2023-04-28T06:07:14.857Z,101459.22
2023-04-28T06:09:16.488Z,101460.06
2023-04-28T06:11:22.104Z,101468.78
2023-04-28T06:13:23.593Z,101467.00
2023-04-28T06:15:25.090Z,101461.72
2023-04-28T06:17:26.680Z,101464.34
2023-04-28T06:19:28.173Z,101462.59
2023-04-28T06:21:29.628Z,101462.59
2023-04-28T06:23:31.355Z,101455.56
2023-04-28T06:25:32.841Z,101458.16
2023-04-28T06:27:34.574Z,101466.00
2023-04-28T06:29:36.372Z,101463.31
2023-04-28T06:31:38.186Z,101462.41
2023-04-28T06:33:39.731Z,101461.47
2023-04-28T06:35:41.430Z,101457.06
2023-04-28T06:37:43.114Z,101457.91
2023-04-28T06:39:44.585Z,101450.81
2023-04-28T06:41:47.167Z,101453.38
2023-04-28T06:43:48.715Z,101443.66
2023-04-28T06:45:50.186Z,101443.63
2023-04-28T06:47:52.442Z,101450.56
2023-04-28T06:49:54.038Z,101445.22
2023-04-28T06:51:55.599Z,101445.09
2023-04-28T06:53:57.181Z,101445.88
2023-04-28T06:55:58.789Z,101437.00
2023-04-28T06:58:00.377Z,101436.88
2023-04-28T07:00:04.191Z,101438.56
2023-04-28T07:02:05.872Z,101438.47
2023-04-28T07:04:07.549Z,101433.97
2023-04-28T07:06:09.341Z,101428.59
2023-04-28T07:08:10.915Z,101429.38
2023-04-28T07:10:13.319Z,101421.41
2023-04-28T07:12:15.007Z,101417.81
2023-04-28T07:14:17.105Z,101411.66
2023-04-28T07:16:19.253Z,101417.78
2023-04-28T07:18:20.825Z,101415.09
2023-04-28T07:20:22.394Z,101415.91
2023-04-28T07:22:24.052Z,101418.50
2023-04-28T07:24:27.240Z,101423.75
2023-04-28T07:26:28.764Z,101424.53
2023-04-28T07:28:30.504Z,101420.91
2023-04-28T07:30:32.029Z,101424.28
2023-04-28T07:32:33.564Z,101423.25
2023-04-28T07:34:35.878Z,101424.00
2023-04-28T07:36:37.422Z,101420.34
2023-04-28T07:38:38.892Z,101426.38
2023-04-28T07:40:43.217Z,101418.34
2023-04-28T07:42:45.481Z,101418.28
2023-04-28T07:44:47.017Z,101419.06
2023-04-28T07:46:50.349Z,101411.09
2023-04-28T07:48:54.412Z,101413.63
2023-04-28T07:50:55.906Z,101411.78
2023-04-28T07:52:58.733Z,101404.59
2023-04-28T07:55:00.300Z,101405.38
2023-04-28T07:57:03.172Z,101410.53
2023-04-28T07:59:04.669Z,101407.78
2023-04-28T08:01:06.269Z,101406.78
2023-04-28T08:03:07.937Z,101402.25
2023-04-28T08:05:10.500Z,101407.41
2023-04-28T08:07:13.789Z,101408.13
2023-04-28T08:09:15.650Z,101400.94
2023-04-28T08:11:17.185Z,101405.22
2023-04-28T08:13:19.262Z,101400.69
2023-04-28T08:15:20.928Z,101402.28
2023-04-28T08:17:22.607Z,101403.06
2023-04-28T08:19:24.127Z,101395.09
2023-04-28T08:21:25.999Z,101399.41
2023-04-28T08:23:30.571Z,101392.22
2023-04-28T08:25:32.093Z,101392.03
2023-04-28T08:27:34.171Z,101393.63
2023-04-28T08:29:35.653Z,101386.38
2023-04-28T08:31:37.293Z,101381.00
2023-04-28T08:33:39.067Z,101380.81
2023-04-28T08:35:40.581Z,101379.75
2023-04-28T08:37:42.353Z,101387.47
2023-04-28T08:39:43.947Z,101396.06
2023-04-28T08:41:45.418Z,101380.91
2023-04-28T08:43:47.043Z,101382.53
2023-04-28T08:45:48.568Z,101382.31
2023-04-28T08:47:51.599Z,101387.44
2023-04-28T08:49:57.385Z,101381.97
2023-04-28T08:52:00.482Z,101382.06
2023-04-28T08:56:13.784Z,101370.44
2023-04-28T08:58:15.361Z,101371.25
2023-04-28T09:00:17.170Z,101368.69
2023-04-28T09:02:20.072Z,101374.88
2023-04-28T09:04:22.102Z,101367.84
2023-04-28T09:06:23.993Z,101374.00
2023-04-28T09:08:25.574Z,101373.97
2023-04-28T09:10:27.597Z,101374.69
2023-04-28T09:12:38.408Z,101380.66
2023-04-28T09:14:39.967Z,101379.66
2023-04-28T09:16:41.818Z,101376.91
2023-04-28T09:18:57.122Z,101373.22
2023-04-28T09:21:13.044Z,101379.34
2023-04-28T09:23:18.147Z,101377.59
2023-04-28T09:25:22.031Z,101376.72
2023-04-28T09:27:29.912Z,101375.81
2023-04-28T09:29:32.218Z,101372.22
2023-04-28T09:31:40.511Z,101374.81
2023-04-28T09:33:57.079Z,101376.44
2023-04-28T09:35:58.654Z,101368.22
2023-04-28T09:38:00.384Z,101370.53
2023-04-28T09:40:10.536Z,101372.91
2023-04-28T09:42:32.481Z,101365.63
2023-04-28T09:44:33.982Z,101373.50
2023-04-28T09:46:35.645Z,101371.66
2023-04-28T09:48:38.314Z,101371.56
2023-04-28T09:50:40.705Z,101361.63
2023-04-28T09:52:45.813Z,101361.47
2023-04-28T09:54:50.780Z,101359.63
2023-04-28T09:56:52.777Z,101357.00
2023-04-28T09:58:56.204Z,101356.94
2023-04-28T10:00:59.720Z,101356.03
2023-04-28T10:03:01.590Z,101356.84
2023-04-28T10:05:03.813Z,101358.47
2023-04-28T10:07:05.588Z,101350.50
2023-04-28T10:09:07.929Z,101345.97
2023-04-28T10:11:09.995Z,101337.50
2023-04-28T10:13:12.174Z,101340.72
2023-04-28T10:15:13.699Z,101340.50
2023-04-28T10:17:15.308Z,101337.63
2023-04-28T10:19:17.885Z,101332.31
2023-04-28T10:21:21.998Z,101336.59
2023-04-28T10:24:06.460Z,101332.81
2023-04-28T10:26:14.140Z,101324.00
2023-04-28T10:28:16.632Z,101325.81
2023-04-28T10:30:28.325Z,101321.44
2023-04-28T10:32:32.899Z,101322.47
2023-04-28T10:34:34.386Z,101319.13
2023-04-28T10:36:55.765Z,101318.38
2023-04-28T10:39:12.117Z,101308.63
2023-04-28T10:41:32.088Z,101302.44
2023-04-28T10:43:39.338Z,101306.94
2023-04-28T10:45:56.058Z,101302.59
2023-04-28T10:48:06.276Z,101294.94
2023-04-28T10:50:09.229Z,101296.84
2023-04-28T10:52:42.230Z,101299.59
2023-04-28T10:55:22.721Z,101289.13
2023-04-28T10:57:24.289Z,101289.97
2023-04-28T10:59:27.357Z,101290.66
2023-04-28T11:01:32.034Z,101289.59
2023-04-28T11:03:49.581Z,101283.97
2023-04-28T11:06:28.441Z,101280.34
2023-04-28T11:08:30.093Z,101285.59
2023-04-28T11:11:09.511Z,101279.25
2023-04-28T11:13:33.973Z,101272.75
2023-04-28T11:15:35.659Z,101274.38
2023-04-28T11:17:42.085Z,101267.97
2023-04-28T11:19:45.420Z,101259.06
2023-04-28T11:21:51.075Z,101258.97
2023-04-28T11:23:52.681Z,101252.69
2023-04-28T11:25:55.069Z,101262.31
2023-04-28T11:28:03.915Z,101256.94
2023-04-28T11:30:20.915Z,101257.88
2023-04-28T11:32:35.708Z,101251.75
2023-04-28T11:34:37.952Z,101245.63
2023-04-28T11:36:41.075Z,101241.19
2023-04-28T11:38:46.960Z,101251.81
2023-04-28T11:41:00.487Z,101248.47
2023-04-28T11:43:04.077Z,101245.00
2023-04-28T11:45:07.108Z,101249.56
2023-04-28T11:47:08.663Z,101251.28
2023-04-28T11:49:10.126Z,101251.13
2023-04-28T11:51:38.238Z,101250.88
2023-04-28T11:53:45.280Z,101251.75
2023-04-28T11:55:46.738Z,101255.34
2023-04-28T11:57:48.240Z,101256.16
2023-04-28T11:59:50.456Z,101247.31
2023-04-28T12:01:53.035Z,101237.50
2023-04-28T12:03:55.519Z,101233.06
2023-04-28T12:05:57.538Z,101237.31
2023-04-28T12:07:59.126Z,101224.81
2023-04-28T12:10:12.365Z,101229.94
2023-04-28T12:12:18.253Z,101225.19
2023-04-28T12:14:21.028Z,101215.84
2023-04-28T12:16:39.043Z,101212.59
2023-04-28T12:18:59.167Z,101205.75
2023-04-28T12:21:01.094Z,101212.25
2023-04-28T12:23:02.835Z,101206.56
2023-04-28T12:25:16.650Z,101208.16
2023-04-28T12:27:25.845Z,101204.44
2023-04-28T12:29:40.667Z,101210.41
2023-04-28T12:31:54.478Z,101204.09
2023-04-28T12:33:56.149Z,101211.00
2023-04-28T12:35:58.246Z,101207.38
2023-04-28T12:38:00.452Z,101204.69
2023-04-28T12:40:04.773Z,101204.69
2023-04-28T12:42:06.821Z,101203.16
2023-04-28T12:44:08.318Z,101200.38
2023-04-28T12:46:10.922Z,101202.91
2023-04-28T12:48:12.486Z,101198.38
2023-04-28T12:50:13.996Z,101205.44
2023-04-28T12:52:15.526Z,101211.44
2023-04-28T12:54:17.102Z,101203.31
2023-04-28T12:56:18.566Z,101203.78
2023-04-28T12:58:20.052Z,101195.34
2023-04-28T13:00:23.522Z,101195.59
2023-04-28T13:02:25.362Z,101189.72
2023-04-28T13:04:27.536Z,101185.69
2023-04-28T13:06:29.448Z,101183.72
2023-04-28T13:08:34.038Z,101181.78
2023-04-28T13:10:35.515Z,101176.25
2023-04-28T13:12:37.001Z,101174.09
2023-04-28T13:14:38.483Z,101166.53
2023-04-28T13:16:40.313Z,101163.78
2023-04-28T13:18:41.803Z,101161.63
2023-04-28T13:20:43.377Z,101166.16
2023-04-28T13:22:45.090Z,101163.88
2023-04-28T13:24:46.960Z,101151.47
2023-04-28T13:26:48.822Z,101151.84
2023-04-28T13:28:52.146Z,101148.53
2023-04-28T13:30:53.733Z,101148.03
2023-04-28T13:32:57.378Z,101135.91
2023-04-28T13:34:59.292Z,101139.00
2023-04-28T13:37:00.953Z,101141.16
2023-04-28T13:39:02.729Z,101137.31
2023-04-28T13:41:04.692Z,101132.59
2023-04-28T13:43:06.485Z,101128.75
2023-04-28T13:45:08.225Z,101124.91
2023-04-28T13:47:10.880Z,101135.66
2023-04-28T13:49:12.940Z,101134.09
2023-04-28T13:51:14.599Z,101133.63
2023-04-28T13:53:17.172Z,101131.34
2023-04-28T13:55:18.728Z,101123.66
2023-04-28T13:57:20.222Z,101123.00
2023-04-28T13:59:22.591Z,101124.78
2023-04-28T14:01:25.280Z,101114.88
2023-04-28T14:03:27.327Z,101117.22
2023-04-28T14:05:31.590Z,101102.88
2023-04-28T14:07:37.986Z,101108.13
2023-04-28T14:09:40.532Z,101105.16
2023-04-28T14:11:42.036Z,101098.88
2023-04-28T14:13:43.542Z,101092.59
2023-04-28T14:15:58.002Z,101089.28
2023-04-28T14:18:01.563Z,101077.91
2023-04-28T14:20:04.147Z,101082.56
2023-04-28T14:22:05.867Z,101074.63
2023-04-28T14:24:07.636Z,101073.28
2023-04-28T14:26:09.177Z,101065.91
2023-04-28T14:28:11.266Z,101051.22
2023-04-28T14:30:12.807Z,101050.66
2023-04-28T14:32:16.273Z,101048.63
2023-04-28T14:34:17.796Z,101051.06
2023-04-28T14:36:19.372Z,101048.31
2023-04-28T14:38:21.039Z,101049.09
2023-04-28T14:40:22.820Z,101056.09
2023-04-28T14:42:31.082Z,101046.25
2023-04-28T14:44:32.544Z,101049.88
2023-04-28T14:46:34.213Z,101049.88
2023-04-28T14:48:36.339Z,101045.91
2023-04-28T14:50:37.937Z,101048.31
2023-04-28T14:52:39.496Z,101035.13
2023-04-28T14:54:41.002Z,101028.09
2023-04-28T14:56:42.441Z,101019.75
2023-04-28T14:58:43.975Z,101025.88
2023-04-28T15:00:45.448Z,101023.78
2023-04-28T15:02:47.168Z,101018.91
2023-04-28T15:04:49.024Z,101025.91
2023-04-28T15:06:50.665Z,101027.72
2023-04-28T15:08:52.164Z,101020.94
2023-04-28T15:10:53.924Z,101008.78
2023-04-28T15:12:55.679Z,101021.50
2023-04-28T15:14:57.345Z,101022.78
2023-04-28T15:16:59.503Z,101015.03
2023-04-28T15:19:00.964Z,101020.69
2023-04-28T15:21:02.513Z,101018.31
2023-04-28T15:23:04.512Z,101022.97
2023-04-28T15:25:06.867Z,101025.78
2023-04-28T15:27:08.550Z,101024.50
2023-04-28T15:29:10.507Z,101030.66
2023-04-28T15:31:11.994Z,101047.44
2023-04-28T15:33:17.395Z,101052.63
2023-04-28T15:35:19.054Z,101066.69
2023-04-28T15:37:43.037Z,101058.47
2023-04-28T15:39:44.766Z,101052.47
2023-04-28T15:41:46.499Z,101050.88
2023-04-28T15:43:49.900Z,101049.75
2023-04-28T15:45:51.579Z,101045.28
2023-04-28T15:47:54.995Z,101042.66
2023-04-28T15:49:58.921Z,101035.13
2023-04-28T15:52:00.392Z,101035.00
2023-04-28T15:54:01.869Z,101035.00
2023-04-28T15:56:03.921Z,101039.94
2023-04-28T15:58:05.433Z,101037.44
2023-04-28T16:00:09.073Z,101034.13
2023-04-28T16:02:10.745Z,101045.81
2023-04-28T16:04:12.449Z,101047.38
2023-04-28T16:06:14.017Z,101056.91
2023-04-28T16:08:15.852Z,101058.75
2023-04-28T16:10:17.853Z,101056.78
2023-04-28T16:12:20.022Z,101062.75
2023-04-28T16:14:21.564Z,101061.44
2023-04-28T16:16:23.347Z,101062.41
2023-04-28T16:18:24.894Z,101058.81
2023-04-28T16:20:26.427Z,101059.56
2023-04-28T16:22:30.954Z,101061.13
2023-04-28T16:24:32.489Z,101051.16
2023-04-28T16:26:34.402Z,101048.34
2023-04-28T16:28:35.891Z,101049.00
2023-04-28T16:30:37.369Z,101055.94
2023-04-28T16:32:40.564Z,101042.50
2023-04-28T16:34:42.205Z,101042.25
2023-04-28T16:36:43.662Z,101040.34
2023-04-28T16:38:46.570Z,101040.25
2023-04-28T16:40:48.666Z,101035.56
2023-04-28T16:42:50.111Z,101035.34
2023-04-28T16:44:52.946Z,101035.16
2023-04-28T16:46:55.071Z,101035.06
2023-04-28T16:48:56.505Z,101035.94
2023-04-28T16:50:57.970Z,101038.59
2023-04-28T16:52:59.506Z,101036.13
2023-04-28T16:55:01.151Z,101034.53
2023-04-28T16:57:04.089Z,101030.25
2023-04-28T16:59:05.575Z,101032.16
2023-04-28T17:01:07.275Z,101026.97
2023-04-28T17:03:08.842Z,101021.72
2023-04-28T17:05:10.739Z,101015.63
2023-04-28T17:07:12.411Z,101022.72
2023-04-28T17:09:13.859Z,101013.09
2023-04-28T17:11:18.576Z,101018.50
2023-04-28T17:13:20.065Z,101018.56
2023-04-28T17:15:21.587Z,101016.03
2023-04-28T17:17:23.105Z,101012.63
2023-04-28T17:19:24.675Z,101015.34
2023-04-28T17:21:29.439Z,101019.88
2023-04-28T17:23:30.975Z,101019.09
2023-04-28T17:25:32.461Z,101016.50
2023-04-28T17:27:33.949Z,101016.56
2023-04-28T17:29:35.437Z,101014.91
2023-04-28T17:31:38.906Z,101004.28
2023-04-28T17:33:40.776Z,101001.75
2023-04-28T17:35:42.292Z,101008.09
2023-04-28T17:37:43.965Z,101006.59
2023-04-28T17:39:45.431Z,101012.91
2023-04-28T17:41:47.625Z,101013.91
2023-04-28T17:43:51.442Z,101009.75
2023-04-28T17:45:56.608Z,101007.31
2023-04-28T17:48:00.609Z,100997.69
2023-04-28T17:50:02.638Z,101004.94
2023-04-28T17:52:04.118Z,101002.44
2023-04-28T17:54:09.409Z,100994.66
2023-04-28T17:56:11.019Z,101002.66
2023-04-28T17:58:12.709Z,100996.66
2023-04-28T18:00:14.446Z,100997.69
2023-04-28T18:02:18.345Z,100998.66
2023-04-28T18:04:19.877Z,100994.44
2023-04-28T18:06:22.399Z,100998.91
2023-04-28T18:08:23.943Z,101001.66
2023-04-28T18:10:28.048Z,101002.72
2023-04-28T18:12:29.800Z,101000.16
2023-04-28T18:14:31.633Z,101000.28
2023-04-28T18:16:33.158Z,100998.66
2023-04-28T18:18:35.590Z,101002.22
2023-04-28T18:20:37.263Z,101007.59
2023-04-28T18:22:39.212Z,101006.84
2023-04-28T18:24:40.871Z,100999.91
2023-04-28T18:26:42.387Z,100999.91
2023-04-28T18:28:48.094Z,101005.22
2023-04-28T18:30:50.013Z,101003.53
2023-04-28T18:32:52.225Z,101004.50
2023-04-28T18:34:53.730Z,100996.59
2023-04-28T18:36:55.276Z,101002.97
2023-04-28T18:38:57.651Z,101002.25
2023-04-28T18:40:59.136Z,101004.06
2023-04-28T18:43:02.441Z,101012.09
2023-04-28T18:45:07.978Z,101009.44
2023-04-28T18:47:09.582Z,101010.44
2023-04-28T18:49:11.155Z,101006.13
2023-04-28T18:51:12.779Z,101003.53
2023-04-28T18:53:14.329Z,100992.13
2023-04-28T18:55:16.186Z,100985.16
2023-04-28T18:57:17.708Z,100985.25
2023-04-28T18:59:19.166Z,100999.50
2023-04-28T19:01:21.249Z,100997.00
2023-04-28T19:03:23.379Z,100999.63
2023-04-28T19:05:25.805Z,101000.53
2023-04-28T19:07:28.289Z,100995.34
2023-04-28T19:09:29.849Z,100991.03
2023-04-28T19:11:31.435Z,100986.72
2023-04-28T19:13:34.340Z,100994.69
2023-04-28T19:15:35.969Z,100997.41
2023-04-28T19:17:37.491Z,100997.44
2023-04-28T19:19:39.011Z,101005.44
2023-04-28T19:21:42.349Z,101004.56
2023-04-28T19:23:43.825Z,101011.72
2023-04-28T19:25:45.459Z,101011.75
2023-04-28T19:27:47.400Z,101009.97
2023-04-28T19:29:49.100Z,101007.47
2023-04-28T19:31:50.895Z,101007.53
2023-04-28T19:33:52.468Z,101008.44
2023-04-28T19:35:57.159Z,101002.31
2023-04-28T19:37:58.593Z,101007.63
2023-04-28T19:40:00.213Z,101005.88
2023-04-28T19:42:03.056Z,101004.19
2023-04-28T19:44:05.160Z,101009.47
2023-04-28T19:46:06.672Z,101006.88
2023-04-28T19:48:08.709Z,101008.66
2023-04-28T19:50:10.646Z,101008.66
2023-04-28T19:52:12.107Z,101008.72
2023-04-28T19:54:16.261Z,101002.56
2023-04-28T19:56:18.190Z,101010.53
2023-04-28T19:58:19.646Z,101009.72
2023-04-28T20:00:21.785Z,101005.34
2023-04-28T20:02:23.565Z,101003.59
2023-04-28T20:04:25.930Z,101012.41
2023-04-28T20:06:27.660Z,101003.59
2023-04-28T20:08:29.479Z,101014.22
2023-04-28T20:10:30.935Z,101006.28
2023-04-28T20:12:33.062Z,101009.88
2023-04-28T20:14:35.363Z,101006.34
2023-04-28T20:16:36.873Z,101010.81
2023-04-28T20:18:38.402Z,101016.00
2023-04-28T20:20:39.841Z,101022.19
2023-04-28T20:22:41.414Z,101016.88
2023-04-28T20:24:42.964Z,101026.56
2023-04-28T20:26:44.501Z,101029.31
2023-04-28T20:28:47.189Z,101023.19
2023-04-28T20:30:48.654Z,101025.00
2023-04-28T20:32:50.756Z,101033.75
2023-04-28T20:34:52.297Z,101024.94
2023-04-28T20:36:54.139Z,101031.03
2023-04-28T20:38:56.160Z,101021.31
2023-04-28T20:40:58.838Z,101026.63
2023-04-28T20:43:02.146Z,101024.84
2023-04-28T20:45:04.433Z,101028.38
2023-04-28T20:47:06.016Z,101026.66
2023-04-28T20:49:08.176Z,101031.94
2023-04-28T20:51:11.002Z,101034.63
2023-04-28T20:53:12.564Z,101032.03
2023-04-28T20:55:14.116Z,101033.84
2023-04-28T20:57:15.581Z,101029.50
2023-04-28T20:59:17.041Z,101036.59
2023-04-28T21:01:18.599Z,101031.31
2023-04-28T21:03:23.629Z,101041.00
2023-04-28T21:05:25.326Z,101035.78
2023-04-28T21:07:26.777Z,101041.00
2023-04-28T21:09:28.333Z,101033.13
2023-04-28T21:11:29.807Z,101041.09
2023-04-28T21:13:31.280Z,101039.41
2023-04-28T21:15:40.732Z,101039.56
2023-04-28T21:17:43.060Z,101052.19
2023-04-28T21:19:44.597Z,101045.25
2023-04-28T21:21:46.232Z,101047.00
2023-04-28T21:23:48.536Z,101047.84
2023-04-28T21:25:50.046Z,101051.31
2023-04-28T21:27:53.028Z,101062.03
2023-04-28T21:29:54.505Z,101058.66
2023-04-28T21:31:56.093Z,101066.75
2023-04-28T21:33:57.737Z,101067.66
2023-04-28T21:36:05.533Z,101060.59
2023-04-28T21:38:07.850Z,101063.19
2023-04-28T21:40:09.664Z,101056.97
2023-04-28T21:42:11.219Z,101057.88
2023-04-28T21:44:13.082Z,101063.16
2023-04-28T21:46:15.099Z,101059.69
2023-04-28T21:48:17.242Z,101063.22
2023-04-28T21:50:18.955Z,101060.59
2023-04-28T21:52:20.396Z,101062.38
2023-04-28T21:54:21.860Z,101071.19
2023-04-28T21:56:23.316Z,101073.91
2023-04-28T21:58:24.818Z,101072.97
2023-04-28T22:00:27.954Z,101078.28
2023-04-28T22:02:29.613Z,101079.25
2023-04-28T22:04:31.433Z,101070.44
2023-04-28T22:06:33.041Z,101070.50
2023-04-28T22:08:34.490Z,101067.88
2023-04-28T22:10:36.504Z,101074.97
2023-04-28T22:12:38.599Z,101081.25
2023-04-28T22:14:41.645Z,101083.91
2023-04-28T22:16:43.276Z,101086.53
2023-04-28T22:18:44.749Z,101086.56
2023-04-28T22:20:46.863Z,101099.75
2023-04-28T22:22:48.341Z,101095.44
2023-04-28T22:24:50.284Z,101098.09
2023-04-28T22:26:51.750Z,101106.84
2023-04-28T22:28:53.259Z,101103.34
2023-04-28T22:30:54.832Z,101105.03
2023-04-28T22:32:56.593Z,101113.91
2023-04-28T22:34:58.110Z,101107.75
2023-04-28T22:36:59.578Z,101113.91
2023-04-28T22:39:01.165Z,101107.81
2023-04-28T22:41:02.729Z,101106.94
2023-04-28T22:43:04.232Z,101111.34
2023-04-28T22:45:06.722Z,101113.16
2023-04-28T22:47:08.489Z,101120.22
2023-04-28T22:49:09.975Z,101121.13
2023-04-28T22:51:11.436Z,101120.28
2023-04-28T22:53:12.973Z,101128.25
2023-04-28T22:55:14.716Z,101123.91
2023-04-28T22:57:16.299Z,101130.94
2023-04-28T22:59:18.054Z,101129.25
2023-04-28T23:01:19.669Z,101132.75
2023-04-28T23:03:21.569Z,101137.13
2023-04-28T23:05:23.144Z,101142.41
2023-04-28T23:07:24.652Z,101136.25
2023-04-28T23:09:26.514Z,101136.31
2023-04-28T23:11:27.974Z,101137.19
2023-04-28T23:13:29.459Z,101139.03
2023-04-28T23:15:30.962Z,101140.81
2023-04-28T23:17:32.472Z,101147.88
2023-04-28T23:19:38.957Z,101151.38
2023-04-28T23:21:40.753Z,101151.38
2023-04-28T23:23:42.193Z,101146.13
2023-04-28T23:25:43.929Z,101152.31